createdAt,value
2023-05-16T00:00:55.438Z,98211.06
2023-05-16T00:02:57.444Z,98207.00
2023-05-16T00:04:58.911Z,98211.16
2023-05-16T00:07:00.500Z,98209.81
2023-05-16T00:09:02.279Z,98215.31
2023-05-16T00:11:03.829Z,98211.56
2023-05-16T00:13:07.047Z,98215.41
2023-05-16T00:15:13.050Z,98218.78
2023-05-16T00:17:17.563Z,98221.00
2023-05-16T00:19:20.550Z,98213.31
2023-05-16T00:21:23.729Z,98217.22
2023-05-16T00:23:28.918Z,98220.25
2023-05-16T00:25:30.587Z,98222.22
2023-05-16T00:27:34.486Z,98226.88
2023-05-16T00:29:40.982Z,98229.91
2023-05-16T00:31:50.256Z,98230.53
2023-05-16T00:33:52.783Z,98230.00
2023-05-16T00:35:54.271Z,98231.13
2023-05-16T00:37:56.468Z,98237.47
2023-05-16T00:39:58.103Z,98242.41
2023-05-16T00:41:59.539Z,98238.06
2023-05-16T00:44:01.032Z,98231.22
2023-05-16T00:46:02.710Z,98242.50
2023-05-16T00:48:04.773Z,98237.56
2023-05-16T00:50:07.288Z,98234.28
2023-05-16T00:52:09.332Z,98231.00
2023-05-16T00:54:11.979Z,98232.16
2023-05-16T00:56:19.931Z,98241.81
2023-05-16T00:58:23.111Z,98239.34
2023-05-16T01:00:24.717Z,98240.47
2023-05-16T01:02:29.352Z,98240.75
2023-05-16T01:04:31.175Z,98240.22
2023-05-16T01:06:34.257Z,98234.22
2023-05-16T01:08:35.817Z,98226.25
2023-05-16T01:11:00.794Z,98229.00
2023-05-16T01:13:17.189Z,98234.81
2023-05-16T01:15:39.543Z,98231.81
2023-05-16T01:17:50.525Z,98236.81
2023-05-16T01:20:08.409Z,98228.84
2023-05-16T01:22:30.014Z,98232.44
2023-05-16T01:24:35.083Z,98234.34
2023-05-16T01:26:37.313Z,98230.78
2023-05-16T01:28:40.010Z,98231.09
2023-05-16T01:30:43.787Z,98228.34
2023-05-16T01:32:46.553Z,98232.19
2023-05-16T01:34:52.000Z,98232.50
2023-05-16T01:37:16.254Z,98224.25
2023-05-16T01:39:30.487Z,98228.94
2023-05-16T01:41:43.516Z,98220.66
2023-05-16T01:43:51.271Z,98219.84
2023-05-16T01:45:57.918Z,98220.94
2023-05-16T01:48:10.510Z,98225.66
2023-05-16T01:50:20.254Z,98225.94
2023-05-16T01:52:28.357Z,98223.19
2023-05-16T01:54:32.229Z,98230.34
2023-05-16T01:56:37.192Z,98226.75
2023-05-16T01:58:39.626Z,98232.25
2023-05-16T02:00:41.616Z,98234.19
2023-05-16T02:02:45.655Z,98227.84
2023-05-16T02:04:47.238Z,98235.31
2023-05-16T02:06:51.619Z,98234.50
2023-05-16T02:08:53.228Z,98238.34
2023-05-16T02:10:54.747Z,98243.84
2023-05-16T02:12:56.349Z,98245.25
2023-05-16T02:14:59.292Z,98241.97
2023-05-16T02:17:01.911Z,98243.91
2023-05-16T02:19:03.415Z,98249.72
2023-05-16T02:21:06.181Z,98244.78
2023-05-16T02:23:10.613Z,98236.84
2023-05-16T02:25:12.131Z,98244.56
2023-05-16T02:27:13.778Z,98235.78
2023-05-16T02:29:19.230Z,98236.91
2023-05-16T02:31:32.273Z,98233.09
2023-05-16T02:33:34.718Z,98225.97
2023-05-16T02:35:36.878Z,98237.25
2023-05-16T02:37:39.792Z,98238.66
2023-05-16T02:39:41.541Z,98231.53
2023-05-16T02:41:44.866Z,98236.50
2023-05-16T02:43:47.216Z,98241.97
2023-05-16T02:45:48.835Z,98233.22
2023-05-16T02:47:52.047Z,98240.94
2023-05-16T02:49:53.567Z,98244.28
2023-05-16T02:51:55.262Z,98240.19
2023-05-16T02:53:57.276Z,98243.22
2023-05-16T02:55:59.041Z,98239.97
2023-05-16T02:58:00.706Z,98235.88
2023-05-16T03:00:02.300Z,98239.19
2023-05-16T03:02:05.358Z,98239.47
2023-05-16T03:04:08.824Z,98239.25
2023-05-16T03:06:10.953Z,98242.28
2023-05-16T03:08:14.721Z,98242.56
2023-05-16T03:10:18.648Z,98247.75
2023-05-16T03:12:20.656Z,98248.59
2023-05-16T03:14:22.279Z,98243.91
2023-05-16T03:16:24.774Z,98253.81
2023-05-16T03:18:27.015Z,98246.66
2023-05-16T03:20:28.733Z,98247.50
2023-05-16T03:22:31.315Z,98257.66
2023-05-16T03:24:32.889Z,98254.91
2023-05-16T03:26:34.392Z,98253.81
2023-05-16T03:28:40.355Z,98256.56
2023-05-16T03:30:42.203Z,98257.66
2023-05-16T03:32:45.953Z,98262.06
2023-05-16T03:34:47.457Z,98254.91
2023-05-16T03:36:52.622Z,98253.81
2023-05-16T03:38:54.427Z,98259.31
2023-05-16T03:40:56.242Z,98250.25
2023-05-16T03:42:58.994Z,98250.50
2023-05-16T03:45:00.455Z,98256.00
2023-05-16T03:47:01.910Z,98265.59
2023-05-16T03:49:03.428Z,98270.00
2023-05-16T03:51:10.005Z,98266.44
2023-05-16T03:53:12.182Z,98266.44
2023-05-16T03:55:15.131Z,98268.34
2023-05-16T03:57:16.636Z,98277.16
2023-05-16T03:59:20.016Z,98272.44
2023-05-16T04:01:22.468Z,98269.41
2023-05-16T04:03:28.628Z,98273.00
2023-05-16T04:05:30.985Z,98279.84
2023-05-16T04:07:32.624Z,98285.34
2023-05-16T04:09:34.176Z,98279.84
2023-05-16T04:11:36.439Z,98283.09
2023-05-16T04:13:38.161Z,98284.72
2023-05-16T04:15:42.329Z,98293.78
2023-05-16T04:17:44.028Z,98291.88
2023-05-16T04:19:45.807Z,98296.53
2023-05-16T04:21:47.324Z,98290.22
2023-05-16T04:23:48.916Z,98295.44
2023-05-16T04:25:50.696Z,98303.69
2023-05-16T04:27:55.151Z,98303.69
2023-05-16T04:29:56.668Z,98301.78
2023-05-16T04:31:58.229Z,98302.56
2023-05-16T04:33:59.858Z,98311.13
2023-05-16T04:36:01.482Z,98308.06
2023-05-16T04:38:03.113Z,98306.44
2023-05-16T04:40:06.652Z,98311.13
2023-05-16T04:42:08.301Z,98304.78
2023-05-16T04:44:11.210Z,98296.53
2023-05-16T04:46:12.734Z,98298.47
2023-05-16T04:48:15.325Z,98307.84
2023-05-16T04:50:18.142Z,98302.34
2023-05-16T04:52:21.211Z,98309.47
2023-05-16T04:54:22.773Z,98305.63
2023-05-16T04:56:24.349Z,98310.28
2023-05-16T04:58:26.186Z,98317.13
2023-05-16T05:00:28.381Z,98316.03
2023-05-16T05:02:30.099Z,98322.34
2023-05-16T05:04:31.816Z,98327.03
2023-05-16T05:06:33.505Z,98323.97
2023-05-16T05:08:35.166Z,98320.13
2023-05-16T05:10:36.631Z,98329.72
2023-05-16T05:12:38.224Z,98333.31
2023-05-16T05:14:39.711Z,98333.00
2023-05-16T05:16:41.233Z,98333.00
2023-05-16T05:18:42.831Z,98331.06
2023-05-16T05:20:44.872Z,98336.28
2023-05-16T05:22:47.112Z,98340.38
2023-05-16T05:24:48.687Z,98342.28
2023-05-16T05:26:50.325Z,98339.78
2023-05-16T05:29:04.028Z,98338.09
2023-05-16T05:31:10.682Z,98340.56
2023-05-16T05:33:16.392Z,98335.06
2023-05-16T05:35:17.981Z,98334.50
2023-05-16T05:37:19.738Z,98339.38
2023-05-16T05:39:21.398Z,98333.88
2023-05-16T05:41:23.261Z,98336.88
2023-05-16T05:43:24.718Z,98340.44
2023-05-16T05:45:26.484Z,98335.16
2023-05-16T05:47:28.440Z,98338.47
2023-05-16T05:49:31.128Z,98339.50
2023-05-16T05:51:32.868Z,98345.53
2023-05-16T05:53:38.931Z,98350.47
2023-05-16T05:55:43.590Z,98344.38
2023-05-16T05:57:45.040Z,98336.66
2023-05-16T05:59:47.008Z,98347.88
2023-05-16T06:01:52.713Z,98342.91
2023-05-16T06:03:54.365Z,98334.88
2023-05-16T06:05:58.977Z,98337.56
2023-05-16T06:08:00.661Z,98328.72
2023-05-16T06:10:05.608Z,98333.63
2023-05-16T06:12:07.370Z,98335.25
2023-05-16T06:14:08.889Z,98340.69
2023-05-16T06:16:10.449Z,98340.63
2023-05-16T06:18:12.186Z,98341.34
2023-05-16T06:20:13.888Z,98341.28
2023-05-16T06:22:15.488Z,98331.84
2023-05-16T06:24:17.130Z,98328.22
2023-05-16T06:26:22.817Z,98327.53
2023-05-16T06:28:24.872Z,98325.78
2023-05-16T06:30:29.246Z,98320.09
2023-05-16T06:32:30.909Z,98328.22
2023-05-16T06:34:32.568Z,98333.56
2023-05-16T06:36:34.113Z,98327.56
2023-05-16T06:38:35.735Z,98331.84
2023-05-16T06:40:37.536Z,98334.09
2023-05-16T06:42:41.803Z,98331.38
2023-05-16T06:44:43.416Z,98333.66
2023-05-16T06:46:45.092Z,98333.69
2023-05-16T06:49:12.047Z,98328.69
2023-05-16T06:51:14.069Z,98332.25
2023-05-16T06:53:15.698Z,98331.97
2023-05-16T06:55:17.349Z,98323.69
2023-05-16T06:57:20.553Z,98328.34
2023-05-16T06:59:22.197Z,98325.06
2023-05-16T07:01:23.855Z,98321.13
2023-05-16T07:03:25.637Z,98327.75
2023-05-16T07:05:27.504Z,98323.63
2023-05-16T07:07:30.505Z,98329.44
2023-05-16T07:09:33.263Z,98333.25
2023-05-16T07:11:35.218Z,98342.94
2023-05-16T07:13:37.027Z,98335.19
2023-05-16T07:15:38.739Z,98342.91
2023-05-16T07:17:40.733Z,98345.41
2023-05-16T07:19:42.328Z,98343.19
2023-05-16T07:21:46.488Z,98339.63
2023-05-16T07:23:48.032Z,98344.41
2023-05-16T07:25:49.690Z,98350.31
2023-05-16T07:27:51.480Z,98350.19
2023-05-16T07:29:53.073Z,98357.53
2023-05-16T07:31:54.995Z,98352.50
2023-05-16T07:33:57.130Z,98358.19
2023-05-16T07:36:12.187Z,98357.91
2023-05-16T07:38:17.355Z,98362.81
2023-05-16T07:40:21.014Z,98359.69
2023-05-16T07:42:22.663Z,98357.41
2023-05-16T07:44:24.326Z,98357.59
2023-05-16T07:46:26.179Z,98366.41
2023-05-16T07:48:31.327Z,98363.81
2023-05-16T07:50:33.587Z,98365.28
2023-05-16T07:52:35.178Z,98366.28
2023-05-16T07:54:39.526Z,98368.59
2023-05-16T07:56:41.258Z,98360.94
2023-05-16T07:58:44.325Z,98369.94
2023-05-16T08:00:45.957Z,98376.44
2023-05-16T08:02:50.807Z,98375.47
2023-05-16T08:04:52.494Z,98366.50
2023-05-16T08:06:55.323Z,98372.53
2023-05-16T08:08:56.987Z,98365.88
2023-05-16T08:10:58.682Z,98384.94
2023-05-16T08:13:00.367Z,98383.03
2023-05-16T08:15:03.461Z,98377.47
2023-05-16T08:17:05.429Z,98388.88
2023-05-16T08:19:07.506Z,98385.28
2023-05-16T08:21:09.410Z,98383.16
2023-05-16T08:23:10.948Z,98385.44
2023-05-16T08:25:12.457Z,98383.28
2023-05-16T08:27:14.076Z,98391.94
2023-05-16T08:29:15.905Z,98396.19
2023-05-16T08:31:17.536Z,98396.81
2023-05-16T08:33:20.546Z,98403.47
2023-05-16T08:35:22.156Z,98409.69
2023-05-16T08:37:32.843Z,98398.09
2023-05-16T08:39:34.370Z,98413.72
2023-05-16T08:41:36.280Z,98410.47
2023-05-16T08:43:37.977Z,98409.97
2023-05-16T08:45:41.001Z,98415.00
2023-05-16T08:47:43.809Z,98410.94
2023-05-16T08:49:48.371Z,98409.13
2023-05-16T08:51:58.040Z,98414.16
2023-05-16T08:54:13.340Z,98418.69
2023-05-16T08:56:17.415Z,98425.69
2023-05-16T08:58:20.276Z,98422.44
2023-05-16T09:00:22.708Z,98430.56
2023-05-16T09:02:24.950Z,98421.75
2023-05-16T09:04:27.718Z,98425.19
2023-05-16T09:06:29.499Z,98432.97
2023-05-16T09:08:32.025Z,98427.75
2023-05-16T09:10:35.953Z,98423.66
2023-05-16T09:12:38.764Z,98423.81
2023-05-16T09:14:40.432Z,98418.91
2023-05-16T09:16:42.193Z,98422.00
2023-05-16T09:18:46.244Z,98423.94
2023-05-16T09:20:50.056Z,98415.16
2023-05-16T09:22:53.177Z,98415.78
2023-05-16T09:24:54.804Z,98417.09
2023-05-16T09:26:56.705Z,98421.66
2023-05-16T09:29:02.263Z,98415.69
2023-05-16T09:31:03.974Z,98415.72
2023-05-16T09:33:07.914Z,98405.19
2023-05-16T09:35:19.535Z,98409.81
2023-05-16T09:37:30.558Z,98406.91
2023-05-16T09:39:32.167Z,98404.00
2023-05-16T09:41:35.190Z,98401.44
2023-05-16T09:43:42.007Z,98401.31
2023-05-16T09:45:52.581Z,98401.97
2023-05-16T09:48:01.751Z,98408.69
2023-05-16T09:50:06.541Z,98408.69
2023-05-16T09:52:08.359Z,98410.16
2023-05-16T09:54:10.024Z,98399.53
2023-05-16T09:56:12.556Z,98413.06
2023-05-16T09:58:20.843Z,98407.84
2023-05-16T10:00:22.564Z,98415.66
2023-05-16T10:02:28.083Z,98407.81
2023-05-16T10:04:31.149Z,98410.28
2023-05-16T10:06:33.336Z,98414.69
2023-05-16T10:08:36.885Z,98413.84
2023-05-16T10:10:39.500Z,98414.19
2023-05-16T10:12:42.189Z,98419.28
2023-05-16T10:14:46.481Z,98418.78
2023-05-16T10:16:49.733Z,98416.31
2023-05-16T10:18:52.405Z,98423.34
2023-05-16T10:20:55.524Z,98413.72
2023-05-16T10:22:58.503Z,98412.41
2023-05-16T10:25:25.962Z,98415.06
2023-05-16T10:27:31.109Z,98402.66
2023-05-16T10:29:40.045Z,98394.97
2023-05-16T10:31:48.669Z,98399.69
2023-05-16T10:33:50.680Z,98394.31
2023-05-16T10:35:55.441Z,98402.47
2023-05-16T10:37:59.138Z,98397.22
2023-05-16T10:40:01.391Z,98391.97
2023-05-16T10:42:03.214Z,98398.31
2023-05-16T10:44:14.960Z,98397.81
2023-05-16T10:46:16.629Z,98390.25
2023-05-16T10:48:29.751Z,98389.88
2023-05-16T10:50:43.777Z,98386.56
2023-05-16T10:52:45.357Z,98386.00
2023-05-16T10:54:55.733Z,98391.00
2023-05-16T10:57:00.424Z,98397.13
2023-05-16T10:59:02.588Z,98411.13
2023-05-16T11:01:24.310Z,98409.09
2023-05-16T11:03:29.003Z,98403.97
2023-05-16T11:05:31.179Z,98401.94
2023-05-16T11:07:36.660Z,98413.81
2023-05-16T11:09:45.336Z,98414.91
2023-05-16T11:11:51.981Z,98414.00
2023-05-16T11:13:56.604Z,98421.34
2023-05-16T11:16:29.902Z,98427.03
2023-05-16T11:18:33.429Z,98427.50
2023-05-16T11:20:37.748Z,98428.66
2023-05-16T11:22:42.405Z,98429.84
2023-05-16T11:24:58.909Z,98431.31
2023-05-16T11:27:01.703Z,98435.59
2023-05-16T11:29:04.705Z,98432.22
2023-05-16T11:31:06.823Z,98425.69
2023-05-16T11:33:08.670Z,98434.22
2023-05-16T11:35:15.580Z,98427.25
2023-05-16T11:37:18.072Z,98433.84
2023-05-16T11:39:20.224Z,98436.84
2023-05-16T11:41:22.435Z,98433.44
2023-05-16T11:43:24.176Z,98439.19
2023-05-16T11:45:26.130Z,98436.25
2023-05-16T11:47:29.806Z,98439.25
2023-05-16T11:49:31.679Z,98431.06
2023-05-16T11:51:34.847Z,98436.97
2023-05-16T11:53:38.076Z,98431.72
2023-05-16T11:55:42.738Z,98432.56
2023-05-16T11:57:44.476Z,98432.91
2023-05-16T11:59:50.818Z,98428.16
2023-05-16T12:01:53.061Z,98435.81
2023-05-16T12:03:57.961Z,98442.34
2023-05-16T12:06:00.946Z,98444.50
2023-05-16T12:08:04.919Z,98439.88
2023-05-16T12:10:07.947Z,98439.66
2023-05-16T12:12:09.957Z,98428.69
2023-05-16T12:14:12.783Z,98422.91
2023-05-16T12:16:14.924Z,98421.06
2023-05-16T12:18:17.277Z,98425.97
2023-05-16T12:20:19.134Z,98420.53
2023-05-16T12:22:20.941Z,98412.31
2023-05-16T12:24:30.307Z,98421.94
2023-05-16T12:26:33.549Z,98428.00
2023-05-16T12:28:37.747Z,98418.50
2023-05-16T12:30:44.277Z,98420.94
2023-05-16T12:32:46.192Z,98426.97
2023-05-16T12:34:56.106Z,98424.31
2023-05-16T12:37:02.600Z,98431.31
2023-05-16T12:39:04.340Z,98434.69
2023-05-16T12:41:05.940Z,98431.38
2023-05-16T12:43:21.524Z,98428.38
2023-05-16T12:45:29.497Z,98439.81
2023-05-16T12:47:38.531Z,98430.56
2023-05-16T12:49:47.788Z,98436.84
2023-05-16T12:51:55.099Z,98436.75
2023-05-16T12:54:08.901Z,98442.22
2023-05-16T12:56:13.806Z,98448.16
2023-05-16T12:58:16.419Z,98458.41
2023-05-16T13:00:20.707Z,98460.28
2023-05-16T13:02:22.664Z,98449.88
2023-05-16T13:04:24.575Z,98450.59
2023-05-16T13:06:26.743Z,98463.13
2023-05-16T13:08:29.414Z,98447.00
2023-05-16T13:10:31.157Z,98453.50
2023-05-16T13:12:32.695Z,98462.34
2023-05-16T13:14:34.188Z,98463.25
2023-05-16T13:16:35.826Z,98462.56
2023-05-16T13:18:37.489Z,98473.03
2023-05-16T13:20:41.869Z,98474.66
2023-05-16T13:22:44.761Z,98476.28
2023-05-16T13:24:49.672Z,98487.44
2023-05-16T13:26:51.249Z,98495.34
2023-05-16T13:28:54.725Z,98498.84
2023-05-16T13:31:00.676Z,98503.00
2023-05-16T13:33:02.830Z,98507.53
2023-05-16T13:35:04.730Z,98508.47
2023-05-16T13:37:06.296Z,98511.81
2023-05-16T13:39:08.679Z,98501.09
2023-05-16T13:41:10.169Z,98513.84
2023-05-16T13:43:17.214Z,98508.72
2023-05-16T13:45:19.097Z,98517.00
2023-05-16T13:47:23.349Z,98515.81
2023-05-16T13:49:25.056Z,98517.84
2023-05-16T13:51:26.549Z,98513.97
2023-05-16T13:53:28.174Z,98518.81
2023-05-16T13:55:32.038Z,98525.25
2023-05-16T13:57:37.364Z,98521.72
2023-05-16T14:01:46.245Z,98520.22
2023-05-16T14:03:47.988Z,98531.38
2023-05-16T14:05:49.876Z,98526.22
2023-05-16T14:07:52.120Z,98529.84
2023-05-16T14:09:53.722Z,98527.59
2023-05-16T14:11:55.317Z,98522.03
2023-05-16T14:13:57.940Z,98534.84
2023-05-16T14:15:59.486Z,98524.25
2023-05-16T14:18:01.098Z,98527.53
2023-05-16T14:20:03.547Z,98530.03
2023-05-16T14:22:05.684Z,98538.91
2023-05-16T14:24:07.929Z,98527.13
2023-05-16T14:26:09.394Z,98524.53
2023-05-16T14:28:11.488Z,98525.19
2023-05-16T14:30:16.182Z,98527.84
2023-05-16T14:32:18.269Z,98527.31
2023-05-16T14:34:20.341Z,98536.66
2023-05-16T14:36:21.988Z,98528.19
2023-05-16T14:38:25.039Z,98544.34
2023-05-16T14:40:29.291Z,98541.44
2023-05-16T14:42:31.456Z,98534.06
2023-05-16T14:44:33.310Z,98537.50
2023-05-16T14:46:42.503Z,98542.56
2023-05-16T14:48:44.216Z,98547.97
2023-05-16T14:50:46.077Z,98546.19
2023-05-16T14:52:47.827Z,98557.59
2023-05-16T14:54:49.463Z,98553.69
2023-05-16T14:56:51.627Z,98539.97
2023-05-16T14:58:53.069Z,98553.72
2023-05-16T15:00:54.588Z,98550.28
2023-05-16T15:02:56.151Z,98560.41
2023-05-16T15:05:02.649Z,98562.19
2023-05-16T15:07:09.837Z,98559.56
2023-05-16T15:09:14.641Z,98574.44
2023-05-16T15:11:16.337Z,98569.88
2023-05-16T15:13:17.949Z,98568.38
2023-05-16T15:15:19.535Z,98567.72
2023-05-16T15:17:21.253Z,98563.13
2023-05-16T15:19:23.217Z,98566.03
2023-05-16T15:21:25.252Z,98566.19
2023-05-16T15:23:26.774Z,98572.72
2023-05-16T15:25:29.041Z,98575.31
2023-05-16T15:27:31.783Z,98576.63
2023-05-16T15:29:33.321Z,98567.28
2023-05-16T15:31:37.950Z,98564.66
2023-05-16T15:33:39.712Z,98572.00
2023-05-16T15:35:41.360Z,98573.78
2023-05-16T15:37:43.870Z,98580.28
2023-05-16T15:39:45.540Z,98574.06
2023-05-16T15:42:05.292Z,98569.50
2023-05-16T15:44:10.699Z,98579.41
2023-05-16T15:46:14.739Z,98576.78
2023-05-16T15:48:16.467Z,98579.38
2023-05-16T15:50:20.960Z,98569.22
2023-05-16T15:52:24.617Z,98574.88
2023-05-16T15:54:27.627Z,98573.56
2023-05-16T15:56:29.355Z,98575.69
2023-05-16T15:58:31.125Z,98568.81
2023-05-16T16:00:32.760Z,98568.63
2023-05-16T16:02:34.400Z,98561.75
2023-05-16T16:04:36.245Z,98569.09
2023-05-16T16:06:38.094Z,98569.38
2023-05-16T16:08:39.660Z,98570.03
2023-05-16T16:10:41.354Z,98575.06
2023-05-16T16:12:43.165Z,98572.91
2023-05-16T16:14:44.705Z,98577.16
2023-05-16T16:16:46.578Z,98574.69
2023-05-16T16:18:48.293Z,98582.03
2023-05-16T16:20:49.847Z,98579.06
2023-05-16T16:22:51.638Z,98578.03
2023-05-16T16:24:53.825Z,98577.53
2023-05-16T16:26:55.445Z,98584.53
2023-05-16T16:28:57.241Z,98586.78
2023-05-16T16:30:58.880Z,98580.25
2023-05-16T16:33:00.866Z,98588.69
2023-05-16T16:35:05.382Z,98579.34
2023-05-16T16:37:11.508Z,98583.91
2023-05-16T16:39:16.677Z,98586.47
2023-05-16T16:41:18.856Z,98587.41
2023-05-16T16:43:20.578Z,98586.06
2023-05-16T16:45:22.638Z,98596.13
2023-05-16T16:47:25.170Z,98593.16
2023-05-16T16:49:26.906Z,98591.00
2023-05-16T16:51:29.886Z,98598.00
2023-05-16T16:53:32.413Z,98587.53
2023-05-16T16:55:34.003Z,98585.41
2023-05-16T16:57:35.512Z,98579.16
2023-05-16T16:59:37.110Z,98586.16
2023-05-16T17:01:38.733Z,98587.59
2023-05-16T17:03:40.435Z,98588.00
2023-05-16T17:05:43.308Z,98594.69
2023-05-16T17:07:45.011Z,98603.59
2023-05-16T17:09:46.757Z,98599.00
2023-05-16T17:11:48.636Z,98613.44
2023-05-16T17:13:51.296Z,98621.22
2023-05-16T17:15:52.913Z,98613.22
2023-05-16T17:17:54.424Z,98617.13
2023-05-16T17:19:55.966Z,98624.72
2023-05-16T17:21:57.487Z,98625.03
2023-05-16T17:23:59.018Z,98625.66
2023-05-16T17:26:02.164Z,98623.50
2023-05-16T17:28:04.206Z,98632.09
2023-05-16T17:30:07.338Z,98632.72
2023-05-16T17:32:08.824Z,98634.16
2023-05-16T17:34:10.414Z,98630.88
2023-05-16T17:36:11.975Z,98635.88
2023-05-16T17:38:13.425Z,98642.03
2023-05-16T17:40:18.005Z,98638.22
2023-05-16T17:42:19.702Z,98638.00
2023-05-16T17:44:21.590Z,98646.59
2023-05-16T17:46:23.173Z,98646.91
2023-05-16T17:48:24.847Z,98644.75
2023-05-16T17:50:26.680Z,98649.44
2023-05-16T17:52:28.311Z,98654.75
2023-05-16T17:54:36.848Z,98653.13
2023-05-16T17:56:38.476Z,98657.00
2023-05-16T17:58:40.242Z,98658.44
2023-05-16T18:00:42.175Z,98658.25
2023-05-16T18:02:44.537Z,98661.81
2023-05-16T18:04:47.345Z,98670.09
2023-05-16T18:06:52.266Z,98669.31
2023-05-16T18:08:54.078Z,98675.44
2023-05-16T18:10:55.750Z,98678.78
2023-05-16T18:12:57.525Z,98675.22
2023-05-16T18:15:03.610Z,98690.16
2023-05-16T18:17:05.513Z,98693.81
2023-05-16T18:19:08.748Z,98687.78
2023-05-16T18:21:10.562Z,98694.44
2023-05-16T18:23:13.884Z,98687.84
2023-05-16T18:25:16.467Z,98695.31
2023-05-16T18:27:20.753Z,98683.25
2023-05-16T18:29:23.460Z,98683.84
2023-05-16T18:31:25.058Z,98688.53
2023-05-16T18:33:27.023Z,98689.97
2023-05-16T18:35:28.887Z,98690.28
2023-05-16T18:37:31.098Z,98687.84
2023-05-16T18:39:33.110Z,98696.72
2023-05-16T18:41:34.938Z,98702.00
2023-05-16T18:43:36.748Z,98697.41
2023-05-16T18:45:38.454Z,98697.16
2023-05-16T18:47:40.103Z,98711.59
2023-05-16T18:49:43.216Z,98693.38
2023-05-16T18:51:44.962Z,98709.94
2023-05-16T18:53:46.535Z,98706.94
2023-05-16T18:55:48.956Z,98713.88
2023-05-16T18:57:50.534Z,98715.31
2023-05-16T18:59:53.727Z,98713.97
2023-05-16T19:01:55.474Z,98722.88
2023-05-16T19:03:57.221Z,98724.28
2023-05-16T19:05:59.345Z,98720.97
2023-05-16T19:08:00.982Z,98714.72
2023-05-16T19:10:03.837Z,98719.16
2023-05-16T19:12:05.985Z,98728.03
2023-05-16T19:14:08.351Z,98728.66
2023-05-16T19:16:10.004Z,98724.00
2023-05-16T19:18:12.029Z,98735.09
2023-05-16T19:20:13.823Z,98741.25
2023-05-16T19:22:15.438Z,98737.94
2023-05-16T19:24:17.066Z,98744.06
2023-05-16T19:26:18.882Z,98743.00
2023-05-16T19:28:21.437Z,98743.88
2023-05-16T19:30:23.840Z,98742.81
2023-05-16T19:32:25.533Z,98740.13
2023-05-16T19:34:27.405Z,98747.03
2023-05-16T19:36:29.075Z,98755.09
2023-05-16T19:38:30.784Z,98746.88
2023-05-16T19:40:35.343Z,98756.06
2023-05-16T19:42:36.988Z,98759.38
2023-05-16T19:44:38.913Z,98760.28
2023-05-16T19:46:40.483Z,98761.13
2023-05-16T19:48:42.257Z,98754.25
2023-05-16T19:50:44.147Z,98758.41
2023-05-16T19:52:45.676Z,98757.06
2023-05-16T19:54:47.295Z,98758.78
2023-05-16T19:56:48.984Z,98764.88
2023-05-16T19:58:50.698Z,98777.56
2023-05-16T20:00:52.494Z,98772.09
2023-05-16T20:02:54.382Z,98775.72
2023-05-16T20:04:56.004Z,98773.81
2023-05-16T20:06:57.581Z,98779.94
2023-05-16T20:08:59.124Z,98782.97
2023-05-16T20:11:00.810Z,98780.78
2023-05-16T20:13:02.292Z,98791.56
2023-05-16T20:15:10.002Z,98799.31
2023-05-16T20:17:11.762Z,98800.97
2023-05-16T20:19:15.314Z,98800.19
2023-05-16T20:21:19.295Z,98799.44
2023-05-16T20:23:21.602Z,98797.25
2023-05-16T20:25:25.939Z,98798.34
2023-05-16T20:27:27.693Z,98803.91
2023-05-16T20:29:32.497Z,98803.66
2023-05-16T20:31:34.084Z,98799.56
2023-05-16T20:33:35.719Z,98807.25
2023-05-16T20:35:37.278Z,98804.25
2023-05-16T20:37:38.843Z,98801.25
2023-05-16T20:39:41.250Z,98807.31
2023-05-16T20:41:42.801Z,98801.56
2023-05-16T20:43:46.818Z,98804.06
2023-05-16T20:45:48.408Z,98807.91
2023-05-16T20:47:51.386Z,98814.00
2023-05-16T20:49:53.179Z,98818.41
2023-05-16T20:51:54.656Z,98818.19
2023-05-16T20:53:56.423Z,98812.94
2023-05-16T20:55:58.050Z,98822.31
2023-05-16T20:58:00.560Z,98825.09
2023-05-16T21:00:02.070Z,98824.81
2023-05-16T21:02:09.833Z,98822.63
2023-05-16T21:04:11.451Z,98819.63
2023-05-16T21:06:13.397Z,98824.03
2023-05-16T21:08:15.029Z,98815.78
2023-05-16T21:10:18.482Z,98815.56
2023-05-16T21:12:20.206Z,98820.22
2023-05-16T21:14:21.693Z,98818.03
2023-05-16T21:16:23.380Z,98820.50
2023-05-16T21:18:25.049Z,98821.34
2023-05-16T21:20:31.104Z,98827.72
2023-05-16T21:22:32.758Z,98829.91
2023-05-16T21:24:35.645Z,98829.66
2023-05-16T21:26:37.241Z,98831.03
2023-05-16T21:28:45.934Z,98834.63
2023-05-16T21:31:01.461Z,98837.38
2023-05-16T21:33:03.213Z,98854.44
2023-05-16T21:35:06.913Z,98850.31
2023-05-16T21:37:08.713Z,98862.69
2023-05-16T21:39:10.331Z,98863.25
2023-05-16T21:41:12.148Z,98860.78
2023-05-16T21:43:13.698Z,98857.22
2023-05-16T21:45:19.430Z,98858.59
2023-05-16T21:47:21.161Z,98860.50
2023-05-16T21:49:22.676Z,98860.81
2023-05-16T21:51:24.425Z,98859.44
2023-05-16T21:53:26.191Z,98870.16
2023-05-16T21:55:27.930Z,98864.66
2023-05-16T21:57:29.530Z,98859.44
2023-05-16T21:59:31.136Z,98866.84
2023-05-16T22:01:37.222Z,98868.22
2023-05-16T22:03:38.987Z,98863.28
2023-05-16T22:05:40.774Z,98867.16
2023-05-16T22:07:48.670Z,98864.94
2023-05-16T22:09:55.877Z,98874.03
2023-05-16T22:11:57.456Z,98868.22
2023-05-16T22:13:59.092Z,98872.88
2023-05-16T22:16:04.455Z,98874.53
2023-05-16T22:18:09.924Z,98885.22
2023-05-16T22:20:11.765Z,98875.63
2023-05-16T22:22:13.312Z,98875.91
2023-05-16T22:24:14.926Z,98877.53
2023-05-16T22:26:16.555Z,98889.88
2023-05-16T22:28:22.735Z,98886.34
2023-05-16T22:30:24.244Z,98890.16
2023-05-16T22:32:26.341Z,98887.41
2023-05-16T22:34:29.189Z,98886.59
2023-05-16T22:36:31.301Z,98892.38
2023-05-16T22:38:32.971Z,98894.00
2023-05-16T22:40:36.992Z,98900.84
2023-05-16T22:42:41.723Z,98901.13
2023-05-16T22:44:43.363Z,98895.63
2023-05-16T22:46:45.233Z,98904.69
2023-05-16T22:48:46.969Z,98907.16
2023-05-16T22:50:48.700Z,98905.78
2023-05-16T22:52:50.333Z,98908.25
2023-05-16T22:54:51.995Z,98913.16
2023-05-16T22:56:54.766Z,98909.88
2023-05-16T22:58:56.458Z,98906.84
2023-05-16T23:01:02.879Z,98909.84
2023-05-16T23:03:04.778Z,98919.75
2023-05-16T23:05:09.716Z,98919.19
2023-05-16T23:07:14.082Z,98920.28
2023-05-16T23:09:15.734Z,98913.41
2023-05-16T23:11:17.447Z,98927.41
2023-05-16T23:13:19.079Z,98928.47
2023-05-16T23:15:20.740Z,98931.22
2023-05-16T23:17:22.602Z,98919.41
2023-05-16T23:19:24.221Z,98925.16
2023-05-16T23:21:25.864Z,98926.53
2023-05-16T23:23:27.354Z,98923.50
2023-05-16T23:25:29.254Z,98938.56
2023-05-16T23:27:34.916Z,98923.47
2023-05-16T23:29:36.533Z,98931.97
2023-05-16T23:31:38.060Z,98931.44
2023-05-16T23:33:39.679Z,98939.91
2023-05-16T23:35:43.475Z,98942.38
2023-05-16T23:37:45.079Z,98943.44
2023-05-16T23:39:46.621Z,98939.31
2023-05-16T23:41:48.212Z,98945.91
2023-05-16T23:43:49.987Z,98940.97
2023-05-16T23:45:51.601Z,98949.72
2023-05-16T23:47:53.276Z,98949.16
2023-05-16T23:49:54.935Z,98953.25
2023-05-16T23:51:58.171Z,98954.59
2023-05-16T23:53:59.981Z,98955.13
2023-05-16T23:56:01.650Z,98960.84
2023-05-16T23:58:03.920Z,98968.25
